Ely, Nevada Weather observations

Data are for observation ending at time listed.
 Day   Time    Ave.   Ave.  Ave.  Vector   Max.   Stn.    Total    Solar   Ave.  
  of    of     Air    Rel.  Wind   Wind    Wind   Baro.  Precip.   Rad.    Soil  
Year   Day     Temp.  Hum.  Speed  Dir.    Gust   Pres.                    Temp. 
2014   (PST)    F      %     mph   deg.    mph     mb.     in.     W/m2     F   
------------------------------------------------------------------------------
 203    5:50   53.6    45    5.2   162      7.9   817.0    0.00     214    64.7
 203    6:00   55.8    40    3.1   163      4.8   817.1    0.00     247    65.7
 203    6:10   57.6    37    2.6   164      3.9   817.2    0.00     282    66.5
 203    6:20   59.1    37    3.9   183      5.6   817.2    0.00     316    66.9
 203    6:30   60.3    35    5.1   168      7.8   817.2    0.00     352    67.1
 203    6:40   61.8    33    5.6   158      7.1   817.2    0.00     388    67.4
 203    6:50   62.9    32    3.4   172      5.6   817.2    0.00     422    68.2
 203    7:00   65.5    30    3.9   182      7.2   817.2    0.00     458    68.6
 203    7:10   67.8    28    3.4   177      5.6   817.2    0.00     494    69.4
 203    7:20   69.7    23    5.6   148      8.5   817.2    0.00     528    71.4
 203    7:30   71.0    22    6.0   172      8.0   817.0    0.00     564    73.8
 203    7:40   72.8    21    3.7   187      6.9   817.0    0.00     604    76.1
 203    7:50   74.7    20    1.8   323      4.5   816.8    0.00     633    78.2
 203    8:00   76.9    18    4.3   132     14.8   816.8    0.00     661    80.2
 203    8:10   78.6    15    9.9   134     16.1   816.7    0.00     701    82.0
 203    8:20   78.7    14   11.5   133     18.3   816.6    0.00     727    83.4
 203    8:30   79.4    14   10.3   141     16.4   816.6    0.00     756    83.8
 203    8:40   80.0    14    9.9   149     15.7   816.5    0.00     786    83.5
 203    8:50   80.3    13   11.2   138     17.0   816.5    0.00     816    83.5
 203    9:00   80.5    13   10.6   142     18.0   816.4    0.00     844    83.8
 203    9:10   80.9    12   11.8   152     19.4   816.3    0.00     873    84.3
 203    9:20   81.6    12   12.8   154     22.5   816.2    0.00     902    85.0
 203    9:30   82.7    11   10.5   128     20.2   816.2    0.00     924    85.7
 203    9:40   82.8    10   14.3   147     23.2   816.1    0.00     945    86.5
 203    9:50   83.7    10   13.5   129     20.1   816.0    0.00     923    87.3
 203   10:00   83.6    10   15.0   142     21.0   815.9    0.00     983    88.0
 203   10:10   84.1    10   15.0   140     28.7   815.9    0.00    1005    88.7
 203   10:20   84.8     8   17.7   137     27.2   815.8    0.00    1029    89.4
 203   10:30   85.1     8   20.1   145     28.9   815.7    0.00    1042    90.0
 203   10:40   85.5     8   19.8   139     29.1   815.6    0.00    1052    90.5
 203   10:50   85.7     8   19.1   128     30.7   815.5    0.00    1061    91.1
 203   11:00   86.3     8   18.6   128     28.4   815.5    0.00    1073    91.5
 203   11:10   86.3     8   19.2   130     27.6   815.4    0.00    1081    92.0
 203   11:20   86.5     8   19.6   130     28.4   815.4    0.00    1085    92.4
 203   11:30   86.8     8   18.4   131     27.4   815.4    0.00    1078    92.8
 203   11:40   87.1     8   19.0   136     33.8   815.3    0.00    1095    93.2
 203   11:50   87.3     8   16.7   138     29.4   815.3    0.00    1100    93.6
 203   12:00   87.9     8   18.4   140     28.6   815.3    0.00    1093    94.0
 203   12:10   87.5     8   17.8   138     31.3   815.3    0.00    1089    94.4
 203   12:20   87.9     8   19.4   140     27.8   815.2    0.00    1094    94.6
 203   12:30   88.3     7   17.8   138     28.2   815.1    0.00    1092    94.3
 203   12:40   88.0     7   20.1   142     29.5   815.0    0.00    1076    93.5
 203   12:50   88.6     7   18.1   134     26.5   815.0    0.00     869    93.4
 203   13:00   87.9     8   16.1   134     26.2   815.0    0.00     875    93.5
 203   13:10   88.5     8   18.9   137     28.6   814.9    0.00     892    93.5
 203   13:20   88.3     8   15.0   133     22.8   814.9    0.00     846    93.6
 203   13:30   89.2     7   17.5   127     30.1   814.8    0.00     945    93.7
 203   13:40   89.4     7   17.0   126     27.2   814.7    0.00     984    93.7
 203   13:50   89.8     8   15.9   124     26.2   814.7    0.00     973    93.9
 203   14:00   89.4     8   15.8   148     27.8   814.6    0.00     915    94.1
 203   14:10   89.2     8   15.0   143     25.3   814.6    0.00     922    94.1
 203   14:20   89.5     8   16.6   140     24.6   814.5    0.00     889    94.2
 203   14:30   89.4     8   12.2   133     22.3   814.4    0.00     870    94.2
 203   14:40   90.1     8   14.6   129     23.7   814.2    0.00     842    94.0
 203   14:50   89.9     8   15.2   139     29.0   814.1    0.00     818    93.8
 203   15:00   89.4     8   13.9   152     26.2   814.0    0.00     789    93.6
 203   15:10   89.8     8   15.0   138     24.8   813.9    0.00     762    93.3
 203   15:20   89.9     8   13.7   165     24.9   813.9    0.00     733    92.9
 203   15:30   90.2     8   11.9   174     19.2   813.9    0.00     701    92.6
 203   15:40   89.7     8   10.5   167     19.9   813.8    0.00     670    92.7
 203   15:50   89.6     8   12.0   154     23.5   813.8    0.00     636    92.8
 203   16:00   90.1     8   12.9   165     25.4   813.6    0.00     604    92.8
 203   16:10   90.4     7   11.7   168     18.6   813.5    0.00     570    92.5
 203   16:20   90.0     7   15.3   145     24.3   813.5    0.00     536    92.2
 203   16:30   90.1     7   18.2   136     31.6   813.3    0.00     502    92.0
 203   16:40   89.3     7   15.9   162     33.2   813.4    0.00     466    91.6
 203   16:50   89.3     7   16.0   170     25.7   813.4    0.00     431    91.2
 203   17:00   89.6     6   16.5   185     23.4   813.4    0.00     358    90.7
 203   17:10   89.3     6   15.3   185     22.3   813.4    0.00      35    90.1
 203   17:20   89.0     6   15.0   174     24.0   813.4    0.00      34    89.5
 203   17:30   88.5     6   15.6   178     22.1   813.3    0.00      29    88.9
 203   17:40   87.7     6   13.9   172     22.3   813.4    0.00      27    88.3
 203   17:50   86.9     6   12.4   173     21.3   813.5    0.00      27    87.7
 203   18:00   86.4     7   13.8   167     22.9   813.5    0.00      23    87.1
 203   18:10   86.0     7   12.5   170     20.8   813.5    0.00      24    86.5
 203   18:20   85.5     7   14.0   173     22.2   813.5    0.00      28    85.9
 203   18:30   84.9     8   12.5   169     19.4   813.5    0.00      30    85.3
 203   18:40   83.5     8   13.3   163     18.2   813.5    0.00      22    84.8
 203   18:50   82.4     9   14.4   158     17.7   813.6    0.00      18    84.2
 203   19:00   80.3     9   10.4   152     14.2   813.7    0.00       8    83.7
 203   19:10   77.5    10    9.0   137     12.3   813.8    0.00       6    83.0
 203   19:20   76.1    10    9.6   132     13.1   813.9    0.00       1    82.3
 203   19:30   75.4    10   10.2   135     13.0   814.0    0.00       0    81.6
 203   19:40   74.2    11   10.2   136     13.1   814.1    0.00       0    80.9
 203   19:50   73.7    11   10.8   134     13.3   814.2    0.00       0    80.2
 203   20:00   73.3    11   10.3   138     13.7   814.3    0.00       0    79.6
 203   20:10   71.9    12    9.8   147     12.7   814.5    0.00       0    79.1
 203   20:20   68.2    14   10.7   146     13.2   814.6    0.00       0    78.5
 203   20:30   67.0    14   12.8   149     17.1   814.6    0.00       0    78.0
 203   20:40   67.8    13   13.8   147     17.5   814.7    0.00       0    77.3
 203   20:50   67.4    13   14.6   150     17.8   814.8    0.00       0    76.7
 203   21:00   67.4    13   13.9   149     18.5   814.9    0.00       0    76.2
 203   21:10   67.2    13   15.3   147     19.6   814.9    0.00       0    75.8
 203   21:20   67.0    13   13.7   148     18.2   815.0    0.00       0    75.4
 203   21:30   66.7    13   15.6   144     19.8   815.0    0.00       0    75.0
 203   21:40   66.8    13   14.3   146     17.7   815.1    0.00       0    74.6
 203   21:50   64.9    14   13.3   148     17.2   815.1    0.00       0    74.3
 203   22:00   64.7    14   15.5   146     19.5   815.1    0.00       0    73.9
 203   22:10   64.3    14   15.3   148     19.6   815.1    0.00       0    73.6
 203   22:20   63.8    15   15.1   147     19.0   815.2    0.00       0    73.2
 203   22:30   63.2    15   15.3   148     19.1   815.2    0.00       0    72.9
 203   22:40   62.5    16   14.8   149     19.6   815.3    0.00       0    72.5
 203   22:50   61.1    17   14.3   150     18.7   815.5    0.00       0    72.2
 203   23:00   60.9    17   14.3   152     18.3   815.5    0.00       0    71.8
 203   23:10   60.4    18   13.6   151     16.9   815.6    0.00       0    71.5
 203   23:20   60.3    18   13.5   155     17.0   815.6    0.00       0    71.1
 203   23:30   60.4    18   13.1   150     16.3   815.6    0.00       0    70.8
 203   23:40   61.1    18   12.2   154     15.3   815.5    0.00       0    70.5
 203   23:50   59.3    20   10.5   172     15.4   815.6    0.00       0    70.2
 204    0:00   57.9    22   10.0   176     15.0   815.5    0.00       0    69.9
 204    0:10   58.8    21    9.0   165     12.9   815.5    0.00       0    69.5
 204    0:20   58.4    20   11.7   154     17.8   815.4    0.00       0    69.3
 204    0:30   59.0    20   10.8   155     14.2   815.4    0.00       0    69.0
 204    0:40   58.2    22    8.2   178     13.4   815.6    0.00       0    68.8
 204    0:50   60.0    20    8.3   172     11.7   815.6    0.00       0    68.5
 204    1:00   61.7    18    6.7   180      8.8   815.6    0.00       0    68.3
 204    1:10   62.5    17    7.4   176     12.7   815.5    0.00       0    68.1
 204    1:20   61.4    19    6.9   173     10.3   815.5    0.00       0    68.0
 204    1:30   61.3    18    8.8   170     14.2   815.5    0.00       0    67.8
 204    1:40   61.9    18    6.6   165     11.0   815.4    0.00       1    67.7
 204    1:50   60.0    19    7.8   156     10.3   815.4    0.00       0    67.6
 204    2:00   58.2    20    8.3   159     11.2   815.4    0.00       0    67.4
 204    2:10   57.1    21    8.9   142     10.9   815.4    0.00       0    67.3
 204    2:20   56.8    21    8.3   144     12.5   815.4    0.00       0    67.1
 204    2:30   56.4    22    8.4   142     11.0   815.4    0.00       0    66.8
 204    2:40   55.2    22    8.5   144     11.5   815.5    0.00       0    66.6
 204    2:50   55.1    24    5.2   150     10.2   815.6    0.00       0    66.3
 204    3:00   54.5    24    6.5   122      8.6   815.5    0.00       0    66.1
 204    3:10   55.0    23    6.5   122      9.2   815.5    0.00       0    65.8
 204    3:20   56.2    21    8.7   130     11.2   815.4    0.00       0    65.6
 204    3:30   55.3    22   10.9   136     12.8   815.4    0.00       0    65.4
 204    3:40   54.2    23   10.8   141     13.2   815.4    0.00       0    65.2
 204    3:50   53.7    23    9.3   136     10.9   815.5    0.00       0    65.0
 204    4:00   54.0    23    6.6   123      9.5   815.4    0.00       0    64.8
 204    4:10   54.8    22    6.6   130      9.3   815.5    0.00       0    64.7
 204    4:20   52.2    26    8.7   141     11.3   815.5    0.00       3    64.5
 204    4:30   52.1    28    9.7   147     11.8   815.5    0.00       7    64.3
 204    4:40   52.2    27   10.1   140     12.9   815.5    0.00       7    64.1
 204    4:50   51.6    27   10.0   143     11.5   815.5    0.00       7    63.9
 204    5:00   52.6    27   10.4   154     14.5   815.5    0.00      10    63.7
 204    5:10   53.9    26   10.9   163     14.9   815.4    0.00      20    63.5
 204    5:20   53.8    27    8.9   163     12.6   815.4    0.00     101    63.4
 204    5:30   55.7    26   10.0   155     12.6   815.6    0.00     145    63.7
 204    5:40   59.6    21    9.9   155     14.1   815.7    0.00     176    64.7

Return to Ely, Nevada graphs page.


Western Regional Climate Center,wrcc@dri.edu